Time;durP1;ratioP1;P1;durP2;ratioP2;P2;SDS_P1;SDS_P2;PMS_P1;PMS_P2;Temp;Humidity;BMP_temperature;BMP_pressure;BME280_temperature;BME280_humidity;BME280_pressure;Samples;Min_cycle;Max_cycle;Signal;HPM_P1;HPM_P2
2021/04/29 00:01:17;;;;;;;13.63;6.13;;;;;;;;;;10141381;28;20558;-63
2021/04/29 00:06:15;;;;;;;13.10;7.50;;;;;;;;;;10145852;28;20460;-63
2021/04/29 00:11:13;;;;;;;13.13;6.43;;;;;;;;;;10140971;28;20126;-64
2021/04/29 00:16:11;;;;;;;11.15;6.47;;;;;;;;;;10139581;28;20358;-63
2021/04/29 00:21:08;;;;;;;7.37;5.33;;;;;;;;;;10135420;28;20035;-64
2021/04/29 00:26:05;;;;;;;9.57;5.50;;;;;;;;;;10137151;28;20035;-63
2021/04/29 00:31:03;;;;;;;12.30;6.93;;;;;;;;;;10136540;28;20098;-64
2021/04/29 00:36:01;;;;;;;13.30;6.47;;;;;;;;;;10138283;28;20034;-66
2021/04/29 00:41:01;;;;;;;9.83;4.63;;;;;;;;;;10137577;28;20118;-63
2021/04/29 00:45:58;;;;;;;13.90;7.05;;;;;;;;;;10136149;28;20039;-64
2021/04/29 00:50:55;;;;;;;8.47;5.40;;;;;;;;;;10139201;28;20508;-63
2021/04/29 00:55:53;;;;;;;5.83;3.33;;;;;;;;;;10134047;28;20042;-64
2021/04/29 01:00:50;;;;;;;14.33;6.73;;;;;;;;;;10134625;28;20051;-64
2021/04/29 01:05:51;;;;;;;12.80;6.73;;;;;;;;;;10131529;28;20031;-64
2021/04/29 01:11:02;;;;;;;5.47;3.10;;;;;;;;;;10141144;28;20065;-63
2021/04/29 01:16:00;;;;;;;6.97;5.38;;;;;;;;;;10129759;28;20043;-64
2021/04/29 01:21:03;;;;;;;3.33;2.57;;;;;;;;;;10140771;28;20032;-64
2021/04/29 01:26:05;;;;;;;16.10;8.25;;;;;;;;;;10138419;28;20143;-63
2021/04/29 01:31:02;;;;;;;12.88;6.63;;;;;;;;;;10133012;28;20505;-64
2021/04/29 01:36:00;;;;;;;11.27;7.20;;;;;;;;;;10130787;28;20098;-64
2021/04/29 01:40:58;;;;;;;10.60;6.83;;;;;;;;;;10141599;28;20029;-63
2021/04/29 01:45:55;;;;;;;12.23;5.53;;;;;;;;;;10131684;28;20042;-63
2021/04/29 01:50:53;;;;;;;8.80;5.93;;;;;;;;;;10137914;28;20458;-63
2021/04/29 01:55:50;;;;;;;8.50;6.17;;;;;;;;;;10140800;28;20027;-62
2021/04/29 02:00:48;;;;;;;14.43;7.70;;;;;;;;;;10134883;28;20043;-64
2021/04/29 02:05:46;;;;;;;10.82;6.85;;;;;;;;;;10130560;28;20525;-64
2021/04/29 02:10:43;;;;;;;14.53;6.73;;;;;;;;;;10133805;28;20154;-64
2021/04/29 02:15:53;;;;;;;13.70;6.87;;;;;;;;;;10136588;28;20171;-65
2021/04/29 02:20:51;;;;;;;11.68;6.93;;;;;;;;;;10141082;28;20046;-63
2021/04/29 02:25:50;;;;;;;15.10;8.10;;;;;;;;;;10135861;28;20485;-64
2021/04/29 02:30:48;;;;;;;12.35;6.85;;;;;;;;;;10136000;28;20048;-63
2021/04/29 02:35:46;;;;;;;13.27;7.27;;;;;;;;;;10139689;28;20035;-63
2021/04/29 02:40:44;;;;;;;10.47;6.03;;;;;;;;;;10141443;28;20042;-64
2021/04/29 02:45:45;;;;;;;15.82;8.38;;;;;;;;;;10139093;28;20809;-64
2021/04/29 02:50:45;;;;;;;10.25;7.10;;;;;;;;;;10139562;28;20374;-65
2021/04/29 02:55:43;;;;;;;14.52;6.45;;;;;;;;;;10138342;28;20509;-63
2021/04/29 03:00:41;;;;;;;8.10;5.47;;;;;;;;;;10139648;28;20171;-63
2021/04/29 03:05:39;;;;;;;13.25;7.30;;;;;;;;;;10175895;28;20646;-64
2021/04/29 03:10:37;;;;;;;13.97;8.10;;;;;;;;;;10137426;28;20397;-64
2021/04/29 03:15:35;;;;;;;13.53;8.07;;;;;;;;;;10129501;28;20489;-64
2021/04/29 03:20:33;;;;;;;12.88;7.75;;;;;;;;;;10156575;28;20414;-65
2021/04/29 03:25:30;;;;;;;4.37;3.00;;;;;;;;;;10136852;28;20035;-64
2021/04/29 03:30:27;;;;;;;14.03;7.50;;;;;;;;;;10160116;28;20035;-63
2021/04/29 03:35:25;;;;;;;10.77;6.37;;;;;;;;;;10149421;28;20047;-63
2021/04/29 03:40:22;;;;;;;11.50;6.73;;;;;;;;;;10138816;28;20035;-64
2021/04/29 03:45:20;;;;;;;9.80;7.20;;;;;;;;;;10179195;28;20134;-64
2021/04/29 03:50:17;;;;;;;11.20;7.07;;;;;;;;;;10149135;28;20050;-63
2021/04/29 03:55:15;;;;;;;14.57;7.30;;;;;;;;;;10121317;28;20047;-65
2021/04/29 04:00:13;;;;;;;7.27;4.80;;;;;;;;;;10142195;28;20114;-65
2021/04/29 04:05:11;;;;;;;10.93;6.05;;;;;;;;;;10148958;28;20530;-65
2021/04/29 04:10:08;;;;;;;14.00;6.53;;;;;;;;;;10139873;28;20127;-63
2021/04/29 04:15:06;;;;;;;14.77;7.13;;;;;;;;;;10132929;28;20090;-63
2021/04/29 04:20:04;;;;;;;9.55;7.03;;;;;;;;;;10140315;28;20074;-65
2021/04/29 04:25:02;;;;;;;13.67;5.87;;;;;;;;;;10147472;28;20126;-65
2021/04/29 04:29:59;;;;;;;12.50;6.97;;;;;;;;;;10143411;28;20540;-64
2021/04/29 04:34:56;;;;;;;10.60;6.67;;;;;;;;;;10145333;28;20050;-63
2021/04/29 04:39:54;;;;;;;7.87;5.33;;;;;;;;;;10112223;28;20050;-65
2021/04/29 04:44:51;;;;;;;11.07;6.67;;;;;;;;;;10132625;28;20127;-63
2021/04/29 04:49:49;;;;;;;12.47;7.47;;;;;;;;;;10137126;28;20070;-64
2021/04/29 04:54:48;;;;;;;2.53;2.30;;;;;;;;;;10137151;28;20114;-62
2021/04/29 04:59:46;;;;;;;1.00;0.82;;;;;;;;;;10134538;28;20093;-63
2021/04/29 05:04:43;;;;;;;1.57;1.47;;;;;;;;;;10138747;28;20093;-62
2021/04/29 05:09:42;;;;;;;2.33;1.07;;;;;;;;;;10140753;28;20994;-60
2021/04/29 05:14:40;;;;;;;4.75;2.35;;;;;;;;;;10135757;28;20066;-60
2021/04/29 05:19:37;;;;;;;8.70;2.50;;;;;;;;;;10135707;28;20046;-62
2021/04/29 05:24:34;;;;;;;6.43;2.47;;;;;;;;;;10135069;28;20659;-63
2021/04/29 05:29:32;;;;;;;3.93;2.40;;;;;;;;;;10130417;28;20034;-61
2021/04/29 05:34:29;;;;;;;6.73;2.93;;;;;;;;;;10131191;28;20046;-63
2021/04/29 05:39:27;;;;;;;7.53;3.10;;;;;;;;;;10136658;28;20042;-62
2021/04/29 05:44:24;;;;;;;6.33;3.73;;;;;;;;;;10139972;28;20118;-60
2021/04/29 05:49:21;;;;;;;6.30;2.60;;;;;;;;;;10133502;28;20404;-63
2021/04/29 05:54:19;;;;;;;3.43;2.33;;;;;;;;;;10127644;28;20482;-63
2021/04/29 05:59:17;;;;;;;6.13;3.90;;;;;;;;;;10112782;28;20075;-62
2021/04/29 06:04:15;;;;;;;9.13;3.47;;;;;;;;;;10137377;28;20163;-61
2021/04/29 06:09:12;;;;;;;7.43;3.28;;;;;;;;;;10120405;28;20031;-62
2021/04/29 06:14:13;;;;;;;8.10;4.60;;;;;;;;;;10119153;28;20043;-61
2021/04/29 06:19:11;;;;;;;6.07;4.15;;;;;;;;;;10128697;28;20039;-62
2021/04/29 06:24:08;;;;;;;5.20;3.63;;;;;;;;;;10121846;28;20468;-63
2021/04/29 06:29:06;;;;;;;6.50;4.10;;;;;;;;;;10121301;28;20040;-63
2021/04/29 06:34:04;;;;;;;6.83;3.97;;;;;;;;;;10128855;28;20095;-61
2021/04/29 06:39:02;;;;;;;7.03;4.13;;;;;;;;;;10120705;28;20039;-60
2021/04/29 06:44:00;;;;;;;7.87;4.60;;;;;;;;;;10130789;28;20043;-60
2021/04/29 06:48:57;;;;;;;7.37;5.37;;;;;;;;;;10125613;28;20028;-61
2021/04/29 06:53:55;;;;;;;9.07;5.20;;;;;;;;;;10123254;28;20341;-62
2021/04/29 06:58:52;;;;;;;12.20;6.90;;;;;;;;;;10121587;28;20042;-60
2021/04/29 07:03:49;;;;;;;11.53;6.57;;;;;;;;;;10136380;28;20078;-61
2021/04/29 07:08:48;;;;;;;7.97;5.37;;;;;;;;;;10128721;28;20035;-62
2021/04/29 07:13:46;;;;;;;8.40;5.07;;;;;;;;;;10129887;28;20047;-62
2021/04/29 07:18:43;;;;;;;10.70;5.20;;;;;;;;;;10124947;28;20054;-62
2021/04/29 07:23:41;;;;;;;8.00;5.13;;;;;;;;;;10102821;28;20043;-61
2021/04/29 07:28:38;;;;;;;9.33;4.97;;;;;;;;;;10125929;28;20106;-59
2021/04/29 07:33:36;;;;;;;6.03;4.70;;;;;;;;;;10127052;28;20560;-62
2021/04/29 07:38:33;;;;;;;8.47;5.73;;;;;;;;;;10119541;28;20043;-63
2021/04/29 07:43:31;;;;;;;9.23;5.57;;;;;;;;;;10124056;28;20035;-61
2021/04/29 07:48:29;;;;;;;9.50;6.60;;;;;;;;;;10124215;28;20042;-62
2021/04/29 07:53:27;;;;;;;9.47;5.70;;;;;;;;;;10126428;28;20043;-62
2021/04/29 07:58:25;;;;;;;7.13;4.28;;;;;;;;;;10109316;28;20035;-60
2021/04/29 08:03:22;;;;;;;6.75;4.32;;;;;;;;;;10128724;28;20389;-63
2021/04/29 08:08:20;;;;;;;9.97;4.83;;;;;;;;;;10135052;28;20094;-61
2021/04/29 08:13:17;;;;;;;6.87;4.00;;;;;;;;;;10135961;28;20130;-61
2021/04/29 08:18:15;;;;;;;8.03;3.80;;;;;;;;;;10134976;28;20039;-60
2021/04/29 08:23:12;;;;;;;4.77;3.00;;;;;;;;;;10135464;28;20043;-64
2021/04/29 08:28:09;;;;;;;5.50;3.27;;;;;;;;;;10119198;28;20921;-61
2021/04/29 08:33:07;;;;;;;5.37;3.10;;;;;;;;;;10129378;28;20098;-63
2021/04/29 08:38:04;;;;;;;8.07;3.73;;;;;;;;;;10132460;28;20118;-63
2021/04/29 08:43:01;;;;;;;4.37;3.00;;;;;;;;;;10133039;28;20493;-64
2021/04/29 08:47:59;;;;;;;4.67;3.37;;;;;;;;;;10127038;28;20107;-64
2021/04/29 08:52:56;;;;;;;3.47;2.07;;;;;;;;;;10128035;28;20228;-62
2021/04/29 08:57:54;;;;;;;3.73;3.30;;;;;;;;;;10131012;28;20036;-63
2021/04/29 09:02:54;;;;;;;4.30;3.13;;;;;;;;;;10132663;28;20047;-60
2021/04/29 09:07:52;;;;;;;6.22;2.25;;;;;;;;;;10125536;28;20067;-63
2021/04/29 09:12:49;;;;;;;3.87;3.20;;;;;;;;;;10127852;28;20516;-61
2021/04/29 09:17:50;;;;;;;4.63;2.57;;;;;;;;;;10136412;28;20043;-60
2021/04/29 09:22:56;;;;;;;7.53;3.78;;;;;;;;;;10131523;28;20039;-60
2021/04/29 09:27:54;;;;;;;10.18;3.80;;;;;;;;;;10128713;28;20043;-65
2021/04/29 09:32:52;;;;;;;5.93;3.60;;;;;;;;;;10127419;28;20062;-62
2021/04/29 09:37:49;;;;;;;6.03;4.23;;;;;;;;;;10134738;28;20043;-60
2021/04/29 09:42:47;;;;;;;5.20;4.17;;;;;;;;;;10128340;28;20031;-65
2021/04/29 09:47:59;;;;;;;7.05;5.00;;;;;;;;;;10132791;28;20445;-62
2021/04/29 09:53:06;;;;;;;5.00;4.50;;;;;;;;;;10121636;28;20043;-63
2021/04/29 09:58:17;;;;;;;7.32;4.18;;;;;;;;;;10124647;28;20031;-64
2021/04/29 10:03:15;;;;;;;7.20;4.95;;;;;;;;;;10128305;28;20051;-60
2021/04/29 10:08:13;;;;;;;8.02;4.00;;;;;;;;;;10133432;28;20043;-63
2021/04/29 10:13:11;;;;;;;7.57;3.95;;;;;;;;;;10118711;28;20437;-61
2021/04/29 10:18:09;;;;;;;4.13;1.93;;;;;;;;;;10130923;28;20127;-63
2021/04/29 10:23:07;;;;;;;;;;;;;;;;;;10133254;28;20054;-63
2021/04/29 10:28:05;;;;;;;10.77;4.75;;;;;;;;;;10124174;28;20001;-64
2021/04/29 10:33:16;;;;;;;8.65;5.32;;;;;;;;;;10121309;28;20405;-63
2021/04/29 10:38:21;;;;;;;5.28;4.38;;;;;;;;;;10121570;28;20043;-63
2021/04/29 10:43:48;;;;;;;7.65;4.75;;;;;;;;;;10131924;28;20434;-63
2021/04/29 10:48:49;;;;;;;6.32;3.72;;;;;;;;;;10112175;28;20054;-64
2021/04/29 10:53:47;;;;;;;6.55;3.85;;;;;;;;;;10134196;28;20080;-62
2021/04/29 10:58:45;;;;;;;6.87;4.07;;;;;;;;;;10128190;28;20128;-64
2021/04/29 11:03:46;;;;;;;6.38;4.45;;;;;;;;;;10126011;28;20055;-64
2021/04/29 11:08:45;;;;;;;6.05;4.63;;;;;;;;;;10119671;28;20444;-63
2021/04/29 11:13:42;;;;;;;5.10;3.45;;;;;;;;;;10129358;28;20444;-63
2021/04/29 11:18:40;;;;;;;7.73;4.77;;;;;;;;;;10127558;28;20039;-63
2021/04/29 11:23:41;;;;;;;6.97;3.97;;;;;;;;;;10125117;28;20512;-62
2021/04/29 11:28:39;;;;;;;8.45;4.75;;;;;;;;;;10128507;28;20073;-63
2021/04/29 11:33:37;;;;;;;8.30;4.93;;;;;;;;;;10131336;28;20704;-61
2021/04/29 11:38:34;;;;;;;8.13;4.78;;;;;;;;;;10128294;28;20035;-63
2021/04/29 11:43:32;;;;;;;8.00;4.27;;;;;;;;;;10134887;28;20508;-62
2021/04/29 11:48:32;;;;;;;9.80;5.70;;;;;;;;;;10121521;28;20122;-62
2021/04/29 11:53:30;;;;;;;8.43;5.78;;;;;;;;;;10134754;28;20472;-63
2021/04/29 11:58:28;;;;;;;3.85;3.15;;;;;;;;;;10147259;28;20039;-63
2021/04/29 12:03:26;;;;;;;10.73;6.13;;;;;;;;;;10138255;28;20496;-63
2021/04/29 12:08:24;;;;;;;15.95;10.07;;;;;;;;;;10125913;28;20405;-62
2021/04/29 12:13:27;;;;;;;10.60;5.73;;;;;;;;;;10138903;28;20046;-62
2021/04/29 12:18:25;;;;;;;11.32;7.40;;;;;;;;;;10133264;28;20078;-62
2021/04/29 12:23:23;;;;;;;17.00;8.17;;;;;;;;;;10134066;28;20071;-63
2021/04/29 12:28:20;;;;;;;11.17;7.33;;;;;;;;;;10137233;28;20559;-63
2021/04/29 12:33:21;;;;;;;12.33;4.90;;;;;;;;;;10127163;28;20043;-60
2021/04/29 12:38:29;;;;;;;9.07;5.88;;;;;;;;;;10142742;28;20547;-63
2021/04/29 12:43:27;;;;;;;6.63;4.10;;;;;;;;;;10135800;28;20041;-62
2021/04/29 12:48:26;;;;;;;5.00;3.43;;;;;;;;;;10128797;28;20027;-63
2021/04/29 12:53:23;;;;;;;8.93;4.80;;;;;;;;;;10135998;28;20051;-62
2021/04/29 12:58:24;;;;;;;7.47;4.30;;;;;;;;;;10123594;28;20040;-62
2021/04/29 13:03:32;;;;;;;11.60;7.20;;;;;;;;;;10121164;28;20106;-60
2021/04/29 13:08:30;;;;;;;11.00;6.20;;;;;;;;;;10132327;28;20042;-61
2021/04/29 13:13:28;;;;;;;8.87;4.90;;;;;;;;;;10132533;28;20035;-62
2021/04/29 13:18:26;;;;;;;18.70;8.52;;;;;;;;;;10139054;28;20501;-59
2021/04/29 13:23:23;;;;;;;6.30;5.05;;;;;;;;;;10131995;28;20058;-60
2021/04/29 13:28:21;;;;;;;9.40;6.63;;;;;;;;;;10133796;28;20046;-61
2021/04/29 13:33:18;;;;;;;6.93;4.70;;;;;;;;;;10122422;28;20105;-60
2021/04/29 13:38:16;;;;;;;22.93;15.40;;;;;;;;;;10129868;28;20416;-63
2021/04/29 13:43:13;;;;;;;27.87;17.20;;;;;;;;;;10136758;28;20035;-62
2021/04/29 13:48:14;;;;;;;16.87;11.90;;;;;;;;;;10117149;28;20031;-61
2021/04/29 13:53:11;;;;;;;7.93;5.10;;;;;;;;;;10126174;28;20496;-62
2021/04/29 13:58:09;;;;;;;14.97;8.80;;;;;;;;;;10111201;28;20032;-62
2021/04/29 14:03:06;;;;;;;6.20;3.30;;;;;;;;;;10121987;28;20054;-62
2021/04/29 14:08:04;;;;;;;10.50;6.40;;;;;;;;;;10109810;28;20043;-60
2021/04/29 14:13:03;;;;;;;9.73;7.03;;;;;;;;;;10126706;28;20102;-61
2021/04/29 14:18:00;;;;;;;16.15;10.05;;;;;;;;;;10116215;28;20521;-62
2021/04/29 14:22:58;;;;;;;11.50;6.47;;;;;;;;;;10123455;28;20420;-61
2021/04/29 14:27:57;;;;;;;6.30;3.47;;;;;;;;;;10131243;28;20039;-62
2021/04/29 14:32:54;;;;;;;8.65;4.97;;;;;;;;;;10128281;28;20512;-62
2021/04/29 14:37:52;;;;;;;7.77;3.30;;;;;;;;;;10133304;28;20465;-62
2021/04/29 14:42:49;;;;;;;7.53;3.47;;;;;;;;;;10133586;28;20043;-60
2021/04/29 14:47:47;;;;;;;10.13;5.13;;;;;;;;;;10115755;28;20400;-62
2021/04/29 14:52:45;;;;;;;10.87;4.43;;;;;;;;;;10120609;28;20512;-62
2021/04/29 14:57:42;;;;;;;6.73;2.30;;;;;;;;;;10110445;28;20106;-61
2021/04/29 15:02:39;;;;;;;9.93;5.43;;;;;;;;;;10132390;28;20085;-62
2021/04/29 15:07:37;;;;;;;9.67;4.83;;;;;;;;;;10143638;28;20027;-63
2021/04/29 15:12:34;;;;;;;6.30;4.20;;;;;;;;;;10140198;28;20125;-62
2021/04/29 15:17:32;;;;;;;5.17;2.40;;;;;;;;;;10140261;28;20043;-61
2021/04/29 15:22:29;;;;;;;5.70;3.50;;;;;;;;;;10138831;28;20050;-60
2021/04/29 15:27:26;;;;;;;1.73;1.47;;;;;;;;;;10147458;28;20047;-63
2021/04/29 15:32:24;;;;;;;5.00;2.50;;;;;;;;;;10139324;28;20031;-61
2021/04/29 15:37:22;;;;;;;3.00;2.17;;;;;;;;;;10138840;28;20635;-63
2021/04/29 15:42:19;;;;;;;6.67;4.23;;;;;;;;;;10138649;28;20405;-61
2021/04/29 15:47:18;;;;;;;3.67;2.90;;;;;;;;;;10122575;28;20023;-59
2021/04/29 15:52:16;;;;;;;12.77;9.05;;;;;;;;;;10142086;28;20524;-61
2021/04/29 15:57:13;;;;;;;4.50;2.58;;;;;;;;;;10150489;23;20054;-65
2021/04/29 16:02:11;;;;;;;5.33;3.93;;;;;;;;;;10123584;28;20042;-65
2021/04/29 16:07:08;;;;;;;3.27;2.77;;;;;;;;;;10127991;28;20035;-64
2021/04/29 16:12:06;;;;;;;3.90;3.30;;;;;;;;;;10125670;28;20048;-64
2021/04/29 16:17:04;;;;;;;5.07;3.50;;;;;;;;;;10130966;28;20135;-64
2021/04/29 16:22:01;;;;;;;8.13;3.97;;;;;;;;;;10130488;28;20032;-64
2021/04/29 16:26:58;;;;;;;5.23;3.50;;;;;;;;;;10126543;28;20098;-63
2021/04/29 16:31:56;;;;;;;6.57;3.53;;;;;;;;;;10116934;28;20046;-64
2021/04/29 16:36:53;;;;;;;7.27;4.37;;;;;;;;;;10121608;28;20044;-63
2021/04/29 16:41:51;;;;;;;3.60;2.53;;;;;;;;;;10109723;28;20483;-64
2021/04/29 16:46:48;;;;;;;8.60;3.70;;;;;;;;;;10125297;29;20134;-64
2021/04/29 16:51:46;;;;;;;6.87;3.90;;;;;;;;;;10114205;28;20050;-64
2021/04/29 16:56:43;;;;;;;5.10;3.60;;;;;;;;;;10124872;28;20035;-64
2021/04/29 17:01:41;;;;;;;4.77;3.03;;;;;;;;;;10125501;29;20047;-63
2021/04/29 17:06:38;;;;;;;10.13;4.27;;;;;;;;;;10130257;28;20126;-64
2021/04/29 17:11:37;;;;;;;2.47;2.27;;;;;;;;;;10130964;28;20122;-64
2021/04/29 17:16:35;;;;;;;10.27;6.20;;;;;;;;;;10122752;28;20042;-64
2021/04/29 17:21:32;;;;;;;6.53;4.20;;;;;;;;;;10129713;28;20524;-63
2021/04/29 17:26:30;;;;;;;9.23;4.17;;;;;;;;;;10122351;28;20031;-64
2021/04/29 17:31:27;;;;;;;4.50;2.30;;;;;;;;;;10119269;29;20031;-63
2021/04/29 17:36:25;;;;;;;6.93;4.40;;;;;;;;;;10126220;28;20066;-64
2021/04/29 17:41:22;;;;;;;3.40;2.40;;;;;;;;;;10126277;28;20023;-65
2021/04/29 17:46:20;;;;;;;5.70;3.93;;;;;;;;;;10131814;28;20405;-65
2021/04/29 17:51:18;;;;;;;2.17;1.13;;;;;;;;;;10127385;28;20044;-63
2021/04/29 17:56:15;;;;;;;3.60;2.50;;;;;;;;;;10128237;28;20489;-64
2021/04/29 18:01:13;;;;;;;9.43;4.27;;;;;;;;;;10128606;28;20496;-64
2021/04/29 18:06:11;;;;;;;5.43;3.13;;;;;;;;;;10135613;28;20038;-64
2021/04/29 18:11:08;;;;;;;10.83;7.27;;;;;;;;;;10112993;28;20046;-64
2021/04/29 18:16:06;;;;;;;9.97;5.70;;;;;;;;;;10116069;28;20095;-65
2021/04/29 18:21:05;;;;;;;6.13;3.73;;;;;;;;;;10121139;28;20047;-64
2021/04/29 18:26:04;;;;;;;8.52;4.63;;;;;;;;;;10114930;28;20146;-63
2021/04/29 18:31:02;;;;;;;3.77;3.30;;;;;;;;;;10122261;29;20584;-65
2021/04/29 18:36:00;;;;;;;4.75;3.47;;;;;;;;;;10125452;28;20035;-65
2021/04/29 18:40:58;;;;;;;11.65;7.15;;;;;;;;;;10126410;28;20497;-65
2021/04/29 18:45:55;;;;;;;9.73;5.67;;;;;;;;;;10141708;28;20054;-66
2021/04/29 18:50:52;;;;;;;8.40;4.27;;;;;;;;;;10132160;28;20130;-65
2021/04/29 18:55:50;;;;;;;8.07;4.20;;;;;;;;;;10132178;28;20052;-66
2021/04/29 19:00:47;;;;;;;16.53;10.50;;;;;;;;;;10126592;28;20119;-65
2021/04/29 19:05:45;;;;;;;10.07;5.57;;;;;;;;;;10122357;28;20134;-65
2021/04/29 19:10:42;;;;;;;8.57;6.17;;;;;;;;;;10119211;28;20062;-66
2021/04/29 19:15:40;;;;;;;4.57;3.30;;;;;;;;;;10124399;28;20371;-65
2021/04/29 19:20:37;;;;;;;8.10;5.47;;;;;;;;;;10118369;28;20039;-65
2021/04/29 19:25:35;;;;;;;14.10;7.33;;;;;;;;;;10120175;28;20035;-63
2021/04/29 19:30:33;;;;;;;16.27;10.63;;;;;;;;;;10119276;28;20533;-65
2021/04/29 19:35:30;;;;;;;14.27;9.47;;;;;;;;;;10117355;28;20109;-64
2021/04/29 19:40:27;;;;;;;12.80;7.43;;;;;;;;;;10111738;28;20038;-65
2021/04/29 19:45:26;;;;;;;17.93;8.77;;;;;;;;;;10120559;29;20040;-65
2021/04/29 19:50:24;;;;;;;11.63;6.82;;;;;;;;;;10127411;28;20039;-65
2021/04/29 19:55:22;;;;;;;14.17;7.93;;;;;;;;;;10129225;28;20519;-66
2021/04/29 20:00:20;;;;;;;15.47;8.97;;;;;;;;;;10127814;28;20097;-65
2021/04/29 20:05:17;;;;;;;3.65;1.92;;;;;;;;;;10115570;28;21166;-66
2021/04/29 20:10:15;;;;;;;17.30;10.27;;;;;;;;;;10127561;28;20043;-66
2021/04/29 20:15:13;;;;;;;21.80;11.07;;;;;;;;;;10122061;28;20074;-65
2021/04/29 20:20:11;;;;;;;8.53;5.73;;;;;;;;;;10124770;28;20828;-66
2021/04/29 20:25:09;;;;;;;25.13;11.68;;;;;;;;;;10120866;28;20339;-65
2021/04/29 20:30:07;;;;;;;18.83;11.20;;;;;;;;;;10119066;28;20039;-65
2021/04/29 20:35:05;;;;;;;18.57;9.27;;;;;;;;;;10130503;28;20039;-64
2021/04/29 20:40:03;;;;;;;14.63;8.57;;;;;;;;;;10113743;28;20065;-66
2021/04/29 20:45:01;;;;;;;14.27;10.02;;;;;;;;;;10127563;28;20043;-66
2021/04/29 20:49:58;;;;;;;14.80;10.83;;;;;;;;;;10123852;28;20051;-67
2021/04/29 20:54:56;;;;;;;14.43;9.00;;;;;;;;;;10114033;28;20047;-67
2021/04/29 20:59:53;;;;;;;15.03;10.17;;;;;;;;;;10121675;28;20106;-67
2021/04/29 21:04:50;;;;;;;15.10;10.83;;;;;;;;;;10129897;28;20428;-66
2021/04/29 21:09:48;;;;;;;15.20;10.23;;;;;;;;;;10128407;28;20047;-66
2021/04/29 21:14:45;;;;;;;11.90;8.80;;;;;;;;;;10118456;28;20039;-66
2021/04/29 21:19:43;;;;;;;15.53;10.33;;;;;;;;;;10119999;28;20089;-66
2021/04/29 21:24:40;;;;;;;13.87;9.03;;;;;;;;;;10126364;28;20031;-65
2021/04/29 21:29:38;;;;;;;19.17;11.40;;;;;;;;;;10124508;28;20119;-66
2021/04/29 21:34:35;;;;;;;16.53;10.37;;;;;;;;;;10116056;28;20082;-66
2021/04/29 21:39:33;;;;;;;20.87;11.70;;;;;;;;;;10115633;28;20019;-66
2021/04/29 21:44:30;;;;;;;18.00;11.47;;;;;;;;;;10127493;28;20032;-66
2021/04/29 21:49:28;;;;;;;18.90;11.20;;;;;;;;;;10127968;28;20046;-66
2021/04/29 21:54:25;;;;;;;17.43;11.13;;;;;;;;;;10132552;28;20037;-66
2021/04/29 21:59:23;;;;;;;22.33;11.63;;;;;;;;;;10132787;28;20453;-66
2021/04/29 22:04:21;;;;;;;24.58;13.27;;;;;;;;;;10131636;28;20050;-66
2021/04/29 22:09:22;;;;;;;22.97;12.77;;;;;;;;;;10127720;28;20041;-66
2021/04/29 22:14:20;;;;;;;21.15;12.90;;;;;;;;;;10125495;28;20110;-66
2021/04/29 22:19:17;;;;;;;22.33;14.17;;;;;;;;;;10126179;28;20358;-66
2021/04/29 22:24:15;;;;;;;22.20;14.33;;;;;;;;;;10113260;28;20031;-65
2021/04/29 22:29:12;;;;;;;20.43;13.50;;;;;;;;;;10130042;28;20545;-65
2021/04/29 22:34:10;;;;;;;20.77;13.83;;;;;;;;;;10113625;28;20091;-66
2021/04/29 22:39:07;;;;;;;23.90;14.27;;;;;;;;;;10128377;28;20564;-66
2021/04/29 22:44:05;;;;;;;17.97;11.97;;;;;;;;;;10121478;28;20094;-65
2021/04/29 22:49:02;;;;;;;18.47;11.93;;;;;;;;;;10129024;28;20051;-66
2021/04/29 22:54:00;;;;;;;22.43;12.73;;;;;;;;;;10112457;28;20039;-65
2021/04/29 22:58:58;;;;;;;16.23;11.23;;;;;;;;;;10134239;28;20142;-65
2021/04/29 23:03:55;;;;;;;18.23;11.43;;;;;;;;;;10117126;28;20039;-66
2021/04/29 23:08:52;;;;;;;18.57;13.00;;;;;;;;;;10115326;28;20046;-65
2021/04/29 23:13:50;;;;;;;17.43;11.73;;;;;;;;;;10128344;28;20039;-66
2021/04/29 23:18:51;;;;;;;18.63;11.97;;;;;;;;;;10131711;28;20032;-65
2021/04/29 23:23:50;;;;;;;19.00;12.18;;;;;;;;;;10128195;28;20424;-66
2021/04/29 23:28:47;;;;;;;20.37;13.03;;;;;;;;;;10135975;28;20043;-65
2021/04/29 23:33:44;;;;;;;18.17;11.37;;;;;;;;;;10139351;28;20036;-66
2021/04/29 23:38:42;;;;;;;19.00;10.50;;;;;;;;;;10130404;28;20040;-65
2021/04/29 23:43:39;;;;;;;19.03;10.43;;;;;;;;;;10136077;28;20383;-66
2021/04/29 23:48:37;;;;;;;24.38;14.10;;;;;;;;;;10125493;28;20131;-66
2021/04/29 23:53:35;;;;;;;18.20;10.47;;;;;;;;;;10129615;28;20126;-65
2021/04/29 23:58:32;;;;;;;10.47;5.30;;;;;;;;;;10117700;28;20051;-66
